SARI METAR and TAF weather

Enter ICAO airport designator
Station Type Date Time Source
SARI METAR 2021/05/17 22:00 UTC NOAA

SARI 172200Z 20002KT CAVOK 21/13 Q1018


Station Type Date Time Source
SARI Decoded METAR 2021/05/17 22:00 UTC NOAA

Iguazu Aerodrome, Argentina (SARI) 25-44S 054-28W 270M
May 17, 2021 - 06:00 PM EDT / 2021.05.17 2200 UTC
Wind: from the SSW (200 degrees) at 2 MPH (2 KT):0
Visibility: greater than 7 mile(s):0
Temperature: 69 F (21 C)
Dew Point: 55 F (13 C)
Relative Humidity: 60%
Pressure (altimeter): 30.06 in. Hg (1018 hPa)
ob: SARI 172200Z 20002KT CAVOK 21/13 Q1018
cycle: 22

Station Type Date Time Source
SARI TAF 2021/05/17 18:27 UTC NOAA

TAF SARI 171700Z 1718/1818 20005KT 9999 SCT030 TX27/1718Z TN11/1810Z
BECMG 1720/1722 CAVOK PROB40 1808/1812 2000 BR NSC

Example: see airport list